Time;durP1;ratioP1;P1;durP2;ratioP2;P2;SDS_P1;SDS_P2;PMS_P1;PMS_P2;Temp;Humidity;BMP_temperature;BMP_pressure;BME280_temperature;BME280_humidity;BME280_pressure;Samples;Min_cycle;Max_cycle;Signal;HPM_P1;HPM_P2
2022/05/22 00:00:30;;;;;;;5.70;2.00;;;;;;;;;;4962541;28;20244;-74
2022/05/22 00:02:55;;;;;;;6.23;1.80;;;;;;;;;;4956145;28;20706;-73
2022/05/22 00:05:22;;;;;;;4.53;1.80;;;;;;;;;;5000972;28;20308;-73
2022/05/22 00:07:49;;;;;;;5.40;1.90;;;;;;;;;;4989359;28;20248;-74
2022/05/22 00:10:17;;;;;;;2.87;1.60;;;;;;;;;;4993516;28;20231;-74
2022/05/22 00:12:47;;;;;;;4.50;1.70;;;;;;;;;;4997309;28;20220;-72
2022/05/22 00:15:13;;;;;;;4.67;1.60;;;;;;;;;;4990572;28;20324;-75
2022/05/22 00:17:39;;;;;;;4.27;1.57;;;;;;;;;;4971906;28;20217;-74
2022/05/22 00:20:05;;;;;;;6.57;1.70;;;;;;;;;;4991540;28;20232;-74
2022/05/22 00:22:38;;;;;;;4.70;1.60;;;;;;;;;;4972159;28;20233;-73
2022/05/22 00:25:10;;;;;;;5.93;1.80;;;;;;;;;;4974073;28;20707;-73
2022/05/22 00:27:36;;;;;;;4.77;1.77;;;;;;;;;;4993219;28;20229;-74
2022/05/22 00:30:04;;;;;;;5.77;1.83;;;;;;;;;;4993946;28;20229;-73
2022/05/22 00:32:32;;;;;;;4.63;1.70;;;;;;;;;;4974138;28;20221;-74
2022/05/22 00:34:57;;;;;;;4.47;2.13;;;;;;;;;;4994686;28;20224;-73
2022/05/22 00:37:23;;;;;;;5.67;2.00;;;;;;;;;;5003424;28;20756;-73
2022/05/22 00:39:49;;;;;;;4.70;1.67;;;;;;;;;;4991863;28;20244;-73
2022/05/22 00:42:19;;;;;;;3.63;1.73;;;;;;;;;;4969891;28;20241;-73
2022/05/22 00:44:45;;;;;;;4.87;2.00;;;;;;;;;;4960132;28;20589;-73
2022/05/22 00:47:15;;;;;;;6.83;2.10;;;;;;;;;;4966574;28;20291;-74
2022/05/22 00:49:43;;;;;;;6.13;2.10;;;;;;;;;;4989398;28;20236;-74
2022/05/22 00:52:46;;;;;;;3.73;1.90;;;;;;;;;;4985959;28;20256;-74
2022/05/22 00:55:18;;;;;;;4.97;1.83;;;;;;;;;;4990422;28;20706;-74
2022/05/22 00:57:46;;;;;;;5.10;1.97;;;;;;;;;;4978959;28;20682;-74
2022/05/22 01:00:15;;;;;;;8.73;2.00;;;;;;;;;;4967407;28;20252;-73
2022/05/22 01:05:30;;;;;;;5.43;1.70;;;;;;;;;;4990578;28;20300;-73
2022/05/22 01:07:58;;;;;;;5.50;1.80;;;;;;;;;;4994619;28;20233;-73
2022/05/22 01:10:29;;;;;;;5.27;1.80;;;;;;;;;;4970120;28;20267;-73
2022/05/22 01:12:54;;;;;;;5.80;2.10;;;;;;;;;;4972112;28;20225;-74
2022/05/22 01:15:25;;;;;;;3.80;2.00;;;;;;;;;;4953016;28;20218;-73
2022/05/22 01:17:51;;;;;;;5.17;1.70;;;;;;;;;;4976531;28;20231;-73
2022/05/22 01:20:17;;;;;;;3.93;1.80;;;;;;;;;;4991380;28;20279;-75
2022/05/22 01:22:45;;;;;;;3.47;1.73;;;;;;;;;;5007229;28;20649;-73
2022/05/22 01:25:11;;;;;;;6.37;1.93;;;;;;;;;;4993681;28;20220;-73
2022/05/22 01:27:37;;;;;;;7.27;1.97;;;;;;;;;;5006376;28;20749;-74
2022/05/22 01:30:20;;;;;;;3.77;1.77;;;;;;;;;;4995788;28;20733;-74
2022/05/22 01:32:55;;;;;;;5.50;2.07;;;;;;;;;;4971830;28;20309;-74
2022/05/22 01:35:28;;;;;;;6.27;2.33;;;;;;;;;;5001241;28;20593;-73
2022/05/22 01:37:57;;;;;;;3.57;2.10;;;;;;;;;;4998140;28;20225;-74
2022/05/22 01:40:27;;;;;;;4.47;2.07;;;;;;;;;;4973164;28;20604;-73
2022/05/22 01:42:53;;;;;;;7.30;2.33;;;;;;;;;;4998614;28;20621;-73
2022/05/22 01:45:22;;;;;;;4.60;2.03;;;;;;;;;;4973744;28;20232;-73
2022/05/22 01:47:52;;;;;;;5.27;2.20;;;;;;;;;;5003430;28;20778;-73
2022/05/22 01:50:21;;;;;;;4.37;1.83;;;;;;;;;;4995082;28;20307;-73
2022/05/22 01:52:51;;;;;;;5.00;2.00;;;;;;;;;;4989553;28;20217;-74
2022/05/22 01:55:20;;;;;;;6.37;2.07;;;;;;;;;;4977296;28;20229;-73
2022/05/22 01:57:51;;;;;;;6.00;2.03;;;;;;;;;;4976340;28;20666;-74
2022/05/22 02:00:24;;;;;;;3.20;1.80;;;;;;;;;;4965192;28;20236;-73
2022/05/22 02:02:54;;;;;;;5.50;2.13;;;;;;;;;;4981730;28;20259;-73
2022/05/22 02:05:28;;;;;;;4.80;1.80;;;;;;;;;;4985169;28;20612;-73
2022/05/22 02:10:40;;;;;;;3.83;2.17;;;;;;;;;;4988767;28;20228;-73
2022/05/22 02:13:07;;;;;;;4.60;2.40;;;;;;;;;;4995189;28;20228;-73
2022/05/22 02:15:35;;;;;;;4.70;2.40;;;;;;;;;;4988841;28;20240;-73
2022/05/22 02:18:00;;;;;;;6.37;2.40;;;;;;;;;;4974952;28;20312;-75
2022/05/22 02:20:26;;;;;;;4.10;2.10;;;;;;;;;;4992775;28;20231;-75
2022/05/22 02:22:56;;;;;;;4.30;2.10;;;;;;;;;;5008511;28;20236;-74
2022/05/22 02:25:26;;;;;;;5.30;2.10;;;;;;;;;;4993847;28;20220;-73
2022/05/22 02:28:04;;;;;;;4.77;2.03;;;;;;;;;;4958981;28;20225;-73
2022/05/22 02:30:36;;;;;;;3.87;2.07;;;;;;;;;;4971817;28;20638;-72
2022/05/22 02:33:10;;;;;;;3.83;2.10;;;;;;;;;;4998315;28;20229;-74
2022/05/22 02:35:43;;;;;;;5.77;2.23;;;;;;;;;;4991250;28;20217;-73
2022/05/22 02:38:18;;;;;;;4.63;2.07;;;;;;;;;;4989958;28;20221;-73
2022/05/22 02:40:48;;;;;;;6.00;2.37;;;;;;;;;;4979669;28;20227;-74
2022/05/22 02:43:13;;;;;;;6.50;2.33;;;;;;;;;;4993127;28;20228;-73
2022/05/22 02:45:40;;;;;;;5.93;2.40;;;;;;;;;;4988731;28;20766;-74
2022/05/22 02:48:08;;;;;;;4.53;2.13;;;;;;;;;;4967494;28;20228;-74
2022/05/22 02:50:37;;;;;;;5.37;2.20;;;;;;;;;;4971820;28;20575;-73
2022/05/22 02:53:11;;;;;;;7.13;2.20;;;;;;;;;;4977323;28;20232;-73
2022/05/22 02:55:56;;;;;;;8.00;2.67;;;;;;;;;;4994738;28;20233;-74
2022/05/22 02:58:34;;;;;;;7.23;2.70;;;;;;;;;;5004624;28;20216;-74
2022/05/22 03:01:01;;;;;;;4.23;2.50;;;;;;;;;;4993157;28;20229;-73
2022/05/22 03:03:32;;;;;;;9.83;2.67;;;;;;;;;;4991209;28;20305;-73
2022/05/22 03:08:51;;;;;;;6.07;2.70;;;;;;;;;;4996952;28;20233;-74
2022/05/22 03:11:22;;;;;;;5.27;2.33;;;;;;;;;;4981060;28;20221;-73
2022/05/22 03:13:52;;;;;;;4.70;2.67;;;;;;;;;;4973835;28;20248;-73
2022/05/22 03:16:18;;;;;;;3.50;2.60;;;;;;;;;;4991446;28;20221;-73
2022/05/22 03:19:03;;;;;;;7.27;2.90;;;;;;;;;;4994846;28;20221;-73
2022/05/22 03:21:33;;;;;;;5.17;2.83;;;;;;;;;;4986029;28;20304;-74
2022/05/22 03:24:04;;;;;;;6.97;2.63;;;;;;;;;;4973233;28;20312;-74
2022/05/22 03:26:34;;;;;;;7.47;2.80;;;;;;;;;;4982495;28;20304;-74
2022/05/22 03:29:02;;;;;;;4.53;2.60;;;;;;;;;;4988721;28;20308;-73
2022/05/22 03:31:30;;;;;;;4.10;2.90;;;;;;;;;;4974904;28;20217;-73
2022/05/22 03:33:55;;;;;;;5.93;2.93;;;;;;;;;;4975570;28;20263;-74
2022/05/22 03:36:24;;;;;;;5.73;2.77;;;;;;;;;;4979355;28;20727;-74
2022/05/22 03:38:56;;;;;;;4.17;2.87;;;;;;;;;;4991952;28;20236;-73
2022/05/22 03:41:24;;;;;;;6.67;2.67;;;;;;;;;;5007206;28;20308;-73
2022/05/22 03:43:52;;;;;;;4.60;2.70;;;;;;;;;;4994117;28;20227;-72
2022/05/22 03:46:32;;;;;;;7.20;3.17;;;;;;;;;;4990157;28;20225;-73
2022/05/22 03:48:58;;;;;;;6.33;2.57;;;;;;;;;;4985897;28;20644;-72
2022/05/22 03:51:30;;;;;;;6.00;2.67;;;;;;;;;;4985209;28;20267;-74
2022/05/22 03:53:59;;;;;;;3.93;2.57;;;;;;;;;;4989749;28;20316;-73
2022/05/22 03:56:29;;;;;;;3.97;2.70;;;;;;;;;;5003853;28;20228;-73
2022/05/22 03:58:55;;;;;;;5.77;2.53;;;;;;;;;;4987934;28;20312;-74
2022/05/22 04:01:20;;;;;;;5.47;2.80;;;;;;;;;;4993419;28;20231;-74
2022/05/22 04:03:53;;;;;;;6.97;3.07;;;;;;;;;;4975864;28;20228;-73
2022/05/22 04:06:24;;;;;;;3.73;2.40;;;;;;;;;;4979360;28;20221;-73
2022/05/22 04:08:50;;;;;;;5.37;2.80;;;;;;;;;;4977380;28;20239;-73
2022/05/22 04:11:17;;;;;;;5.43;2.63;;;;;;;;;;4986685;28;20218;-73
2022/05/22 04:13:45;;;;;;;5.43;2.77;;;;;;;;;;4975683;28;20698;-73
2022/05/22 04:16:10;;;;;;;4.70;2.57;;;;;;;;;;4963331;28;20237;-75
2022/05/22 04:18:36;;;;;;;5.23;2.93;;;;;;;;;;4991754;28;20225;-73
2022/05/22 04:21:03;;;;;;;4.93;2.57;;;;;;;;;;4998565;28;20244;-73
2022/05/22 04:26:36;;;;;;;3.67;2.47;;;;;;;;;;4996141;28;20825;-74
2022/05/22 04:29:06;;;;;;;6.10;2.80;;;;;;;;;;4970254;28;20797;-74
2022/05/22 04:31:32;;;;;;;6.90;2.90;;;;;;;;;;4970335;28;20217;-73
2022/05/22 04:34:10;;;;;;;5.93;2.80;;;;;;;;;;4990547;28;20316;-73
2022/05/22 04:36:37;;;;;;;5.53;3.07;;;;;;;;;;4993375;28;20642;-74
2022/05/22 04:39:05;;;;;;;4.80;3.17;;;;;;;;;;4984703;28;20236;-74
2022/05/22 04:41:34;;;;;;;7.00;2.97;;;;;;;;;;4990409;28;20303;-74
2022/05/22 04:44:00;;;;;;;7.43;2.93;;;;;;;;;;5003674;28;20299;-74
2022/05/22 04:46:27;;;;;;;5.20;2.93;;;;;;;;;;4975841;28;20609;-74
2022/05/22 04:48:54;;;;;;;5.57;3.10;;;;;;;;;;4986404;28;20321;-74
2022/05/22 04:51:22;;;;;;;6.03;3.00;;;;;;;;;;4992711;28;20307;-74
2022/05/22 04:53:54;;;;;;;5.13;2.80;;;;;;;;;;4991009;28;20605;-73
2022/05/22 04:56:22;;;;;;;7.77;3.33;;;;;;;;;;4993012;28;20217;-74
2022/05/22 04:58:52;;;;;;;6.17;2.70;;;;;;;;;;4990158;28;20229;-73
2022/05/22 05:01:18;;;;;;;4.50;2.90;;;;;;;;;;4962370;28;20230;-74
2022/05/22 05:04:02;;;;;;;5.13;2.83;;;;;;;;;;4992884;28;20236;-73
2022/05/22 05:06:31;;;;;;;6.00;3.23;;;;;;;;;;4986506;28;20233;-74
2022/05/22 05:09:00;;;;;;;5.00;2.67;;;;;;;;;;4991405;28;20257;-73
2022/05/22 05:11:35;;;;;;;5.40;3.00;;;;;;;;;;4981045;28;20228;-74
2022/05/22 05:14:10;;;;;;;4.77;2.97;;;;;;;;;;4986794;28;20303;-74
2022/05/22 05:16:37;;;;;;;5.90;3.03;;;;;;;;;;5000072;28;20233;-74
2022/05/22 05:19:14;;;;;;;6.03;3.10;;;;;;;;;;4983925;28;20220;-73
2022/05/22 05:21:43;;;;;;;5.67;3.40;;;;;;;;;;4992640;28;20307;-76
2022/05/22 05:24:17;;;;;;;7.07;3.07;;;;;;;;;;4993859;28;20308;-74
2022/05/22 05:26:43;;;;;;;6.77;3.07;;;;;;;;;;4970879;28;20248;-74
2022/05/22 05:29:13;;;;;;;7.13;3.23;;;;;;;;;;4978549;28;20219;-73
2022/05/22 05:31:42;;;;;;;5.77;3.23;;;;;;;;;;4990224;28;20243;-72
2022/05/22 05:34:13;;;;;;;6.60;3.20;;;;;;;;;;5003449;28;20274;-72
2022/05/22 05:36:59;;;;;;;7.83;3.50;;;;;;;;;;4993924;28;20256;-75
2022/05/22 05:39:38;;;;;;;7.40;3.83;;;;;;;;;;4996754;28;20248;-73
2022/05/22 05:42:24;;;;;;;8.60;3.63;;;;;;;;;;4985402;28;20229;-73
2022/05/22 05:44:50;;;;;;;6.40;3.47;;;;;;;;;;4973928;28;20248;-74
2022/05/22 05:47:33;;;;;;;5.73;3.53;;;;;;;;;;4991062;28;20260;-73
2022/05/22 05:50:06;;;;;;;6.93;3.40;;;;;;;;;;4991641;28;20225;-74
2022/05/22 05:53:01;;;;;;;7.37;3.57;;;;;;;;;;4946897;28;20235;-73
2022/05/22 05:55:47;;;;;;;9.40;3.50;;;;;;;;;;4978498;28;20213;-73
2022/05/22 05:58:39;;;;;;;7.17;3.40;;;;;;;;;;5000421;28;20256;-74
2022/05/22 06:01:13;;;;;;;9.87;3.93;;;;;;;;;;4992899;28;20304;-74
2022/05/22 06:03:41;;;;;;;11.10;4.40;;;;;;;;;;4974196;28;20240;-74
2022/05/22 06:06:07;;;;;;;8.37;3.67;;;;;;;;;;4953935;28;20640;-74
2022/05/22 06:08:34;;;;;;;6.57;3.40;;;;;;;;;;4984716;28;20267;-74
2022/05/22 06:11:25;;;;;;;7.43;3.33;;;;;;;;;;4973987;28;20255;-74
2022/05/22 06:13:56;;;;;;;10.03;3.57;;;;;;;;;;4987429;28;20224;-74
2022/05/22 06:16:23;;;;;;;11.50;4.23;;;;;;;;;;4991817;28;24942;-74
2022/05/22 06:18:59;;;;;;;11.40;3.50;;;;;;;;;;4991010;28;20229;-75
2022/05/22 06:21:25;;;;;;;9.50;3.50;;;;;;;;;;4987751;28;20226;-73
2022/05/22 06:23:53;;;;;;;7.97;3.07;;;;;;;;;;4975886;28;20579;-73
2022/05/22 06:26:37;;;;;;;7.00;3.30;;;;;;;;;;5001728;28;20301;-74
2022/05/22 06:29:22;;;;;;;9.60;3.23;;;;;;;;;;5002052;28;20236;-73
2022/05/22 06:32:15;;;;;;;8.63;2.87;;;;;;;;;;5001212;28;20259;-73
2022/05/22 06:35:10;;;;;;;5.97;2.67;;;;;;;;;;4979786;28;20224;-74
2022/05/22 06:38:08;;;;;;;8.10;2.97;;;;;;;;;;4971210;28;20221;-73
2022/05/22 06:41:07;;;;;;;6.93;2.73;;;;;;;;;;4979399;28;20252;-74
2022/05/22 06:43:42;;;;;;;7.07;2.70;;;;;;;;;;4975163;28;20232;-74
2022/05/22 06:46:43;;;;;;;6.73;2.33;;;;;;;;;;4950417;28;20774;-74
2022/05/22 06:49:24;;;;;;;7.28;2.70;;;;;;;;;;4941722;28;20994;-74
2022/05/22 06:52:03;;;;;;;5.13;1.92;;;;;;;;;;5010140;28;20228;-74
2022/05/22 06:54:59;;;;;;;5.73;2.07;;;;;;;;;;4997663;28;20686;-74
2022/05/22 06:57:46;;;;;;;8.90;2.38;;;;;;;;;;5003271;28;20303;-73
2022/05/22 07:00:27;;;;;;;4.23;2.20;;;;;;;;;;4988041;28;20709;-72
2022/05/22 07:03:13;;;;;;;5.95;1.88;;;;;;;;;;4984738;28;20275;-74
2022/05/22 07:05:48;;;;;;;5.67;1.93;;;;;;;;;;4996325;28;20279;-73
2022/05/22 07:08:45;;;;;;;6.10;1.80;;;;;;;;;;4976868;28;20220;-73
2022/05/22 07:11:40;;;;;;;6.80;1.90;;;;;;;;;;4968964;28;20257;-74
2022/05/22 07:14:27;;;;;;;7.57;2.05;;;;;;;;;;5007196;28;20725;-74
2022/05/22 07:17:12;;;;;;;6.75;2.47;;;;;;;;;;5000567;28;20224;-74
2022/05/22 07:19:43;;;;;;;6.68;2.20;;;;;;;;;;5009787;28;20228;-74
2022/05/22 07:22:41;;;;;;;5.45;1.70;;;;;;;;;;5000548;28;20244;-74
2022/05/22 07:25:26;;;;;;;5.63;1.80;;;;;;;;;;4995380;28;20228;-72
2022/05/22 07:28:17;;;;;;;6.75;1.90;;;;;;;;;;4979907;28;20248;-74
2022/05/22 07:30:45;;;;;;;5.72;1.70;;;;;;;;;;4974085;28;20221;-74
2022/05/22 07:33:28;;;;;;;4.50;1.67;;;;;;;;;;4992033;28;20237;-75
2022/05/22 07:36:19;;;;;;;5.10;1.55;;;;;;;;;;4997528;28;20710;-74
2022/05/22 07:38:57;;;;;;;5.97;1.98;;;;;;;;;;4988448;28;20221;-75
2022/05/22 07:41:45;;;;;;;6.03;1.80;;;;;;;;;;4964174;28;20225;-74
2022/05/22 07:44:31;;;;;;;4.43;1.67;;;;;;;;;;5006546;28;20232;-75
2022/05/22 07:47:08;;;;;;;5.38;1.48;;;;;;;;;;4972690;28;20225;-75
2022/05/22 07:53:01;;;;;;;6.80;1.70;;;;;;;;;;4976240;28;20275;-73
2022/05/22 07:55:44;;;;;;;4.82;1.58;;;;;;;;;;4966989;28;20261;-75
2022/05/22 07:58:36;;;;;;;4.00;1.40;;;;;;;;;;4972347;28;20240;-75
2022/05/22 08:01:22;;;;;;;5.25;1.40;;;;;;;;;;4988441;28;20372;-72
2022/05/22 08:04:05;;;;;;;4.20;1.25;;;;;;;;;;4994091;28;20221;-74
2022/05/22 08:06:52;;;;;;;3.33;1.30;;;;;;;;;;4986509;28;20588;-74
2022/05/22 08:09:29;;;;;;;4.40;1.50;;;;;;;;;;4976073;28;20919;-73
2022/05/22 08:11:55;;;;;;;5.88;1.45;;;;;;;;;;4987966;28;20320;-75
2022/05/22 08:14:20;;;;;;;2.90;1.20;;;;;;;;;;4974088;28;20221;-75
2022/05/22 08:16:48;;;;;;;3.17;1.25;;;;;;;;;;4989653;28;20240;-73
2022/05/22 08:19:19;;;;;;;3.53;1.17;;;;;;;;;;4987317;28;20235;-73
2022/05/22 08:22:08;;;;;;;6.28;1.25;;;;;;;;;;4987801;28;20741;-72
2022/05/22 08:25:02;;;;;;;4.40;1.38;;;;;;;;;;4981130;28;20220;-74
2022/05/22 08:27:31;;;;;;;6.88;1.48;;;;;;;;;;4957859;28;21407;-75
2022/05/22 08:29:56;;;;;;;3.35;1.25;;;;;;;;;;5005868;28;20217;-73
2022/05/22 08:32:24;;;;;;;5.28;1.38;;;;;;;;;;4969716;28;20358;-74
2022/05/22 08:34:51;;;;;;;4.70;1.38;;;;;;;;;;4958929;28;20312;-75
2022/05/22 08:37:22;;;;;;;5.25;1.17;;;;;;;;;;4994406;28;20228;-73
2022/05/22 08:39:50;;;;;;;5.40;1.25;;;;;;;;;;4972200;28;20307;-72
2022/05/22 08:42:20;;;;;;;4.53;1.30;;;;;;;;;;4985191;28;20664;-72
2022/05/22 08:44:53;;;;;;;6.22;1.20;;;;;;;;;;4976661;28;20213;-73
2022/05/22 08:47:27;;;;;;;3.03;1.17;;;;;;;;;;4991131;28;20224;-74
2022/05/22 08:49:57;;;;;;;5.18;1.42;;;;;;;;;;4986520;28;20299;-73
2022/05/22 08:52:28;;;;;;;4.20;1.40;;;;;;;;;;4982494;28;20278;-73
2022/05/22 08:54:57;;;;;;;2.55;0.93;;;;;;;;;;5000808;28;20260;-74
2022/05/22 09:00:43;;;;;;;2.50;0.90;;;;;;;;;;4934797;29;20235;-74
2022/05/22 09:03:20;;;;;;;3.22;0.90;;;;;;;;;;4923745;29;20241;-73
2022/05/22 09:05:46;;;;;;;2.67;1.23;;;;;;;;;;4943789;28;20224;-72
2022/05/22 09:08:20;;;;;;;4.13;1.20;;;;;;;;;;4983819;28;20229;-73
2022/05/22 09:11:08;;;;;;;4.45;1.10;;;;;;;;;;4988127;28;20232;-74
2022/05/22 09:13:36;;;;;;;1.65;0.70;;;;;;;;;;4990656;28;21128;-73
2022/05/22 09:16:11;;;;;;;2.97;1.00;;;;;;;;;;4990315;28;20266;-72
2022/05/22 09:18:45;;;;;;;2.70;0.90;;;;;;;;;;5003411;28;20733;-73
2022/05/22 09:21:26;;;;;;;2.40;0.90;;;;;;;;;;5005360;28;20223;-72
2022/05/22 09:23:58;;;;;;;3.05;1.08;;;;;;;;;;5004471;28;20247;-74
2022/05/22 09:26:55;;;;;;;2.33;0.70;;;;;;;;;;5001781;28;20231;-73
2022/05/22 09:29:47;;;;;;;3.75;1.10;;;;;;;;;;4989151;28;20225;-73
2022/05/22 09:32:30;;;;;;;3.28;0.90;;;;;;;;;;4990274;28;20219;-74
2022/05/22 09:35:19;;;;;;;3.00;1.00;;;;;;;;;;4983743;28;20610;-74
2022/05/22 09:37:54;;;;;;;3.38;1.08;;;;;;;;;;4991260;28;20284;-74
2022/05/22 09:40:26;;;;;;;2.72;1.10;;;;;;;;;;5000014;28;20213;-75
2022/05/22 09:43:28;;;;;;;3.25;0.88;;;;;;;;;;4989974;28;20263;-74
2022/05/22 09:46:22;;;;;;;3.55;1.02;;;;;;;;;;5003140;28;20224;-72
2022/05/22 09:48:59;;;;;;;1.60;0.70;;;;;;;;;;4989804;28;20805;-74
2022/05/22 09:51:25;;;;;;;1.77;0.60;;;;;;;;;;4975840;28;20231;-74
2022/05/22 09:54:12;;;;;;;2.65;0.60;;;;;;;;;;4971227;28;20221;-73
2022/05/22 09:57:00;;;;;;;3.13;0.80;;;;;;;;;;5001590;28;20228;-75
2022/05/22 09:59:38;;;;;;;1.90;0.90;;;;;;;;;;5003810;28;20229;-74
2022/05/22 10:02:12;;;;;;;2.45;0.85;;;;;;;;;;4987046;28;20250;-74
2022/05/22 10:04:49;;;;;;;2.25;0.80;;;;;;;;;;5002480;28;20224;-74
2022/05/22 10:07:40;;;;;;;2.63;1.15;;;;;;;;;;5003358;28;20253;-73
2022/05/22 10:10:10;;;;;;;2.25;0.77;;;;;;;;;;4965956;28;20229;-74
2022/05/22 10:12:48;;;;;;;2.58;0.80;;;;;;;;;;4972524;28;20224;-72
2022/05/22 10:15:39;;;;;;;1.92;0.70;;;;;;;;;;4997673;28;20228;-73
2022/05/22 10:18:23;;;;;;;2.38;0.80;;;;;;;;;;4999971;28;20662;-74
2022/05/22 10:21:20;;;;;;;1.23;1.05;;;;;;;;;;5004880;28;20225;-75
2022/05/22 10:23:50;;;;;;;1.65;0.70;;;;;;;;;;5008539;28;20227;-75
2022/05/22 10:26:37;;;;;;;1.58;0.65;;;;;;;;;;5005724;28;20844;-74
2022/05/22 10:29:05;;;;;;;2.97;0.80;;;;;;;;;;5007396;28;20232;-74
2022/05/22 10:31:48;;;;;;;2.47;0.80;;;;;;;;;;4989116;28;20307;-74
2022/05/22 10:34:26;;;;;;;2.00;0.80;;;;;;;;;;5003141;28;20256;-75
2022/05/22 10:36:54;;;;;;;2.50;0.82;;;;;;;;;;5002381;28;20311;-72
2022/05/22 10:39:20;;;;;;;1.90;0.75;;;;;;;;;;4995135;28;20237;-72
2022/05/22 10:42:47;;;;;;;1.70;0.80;;;;;;;;;;5007048;28;20274;-74
2022/05/22 10:45:35;;;;;;;1.70;0.80;;;;;;;;;;4966292;28;20261;-74
2022/05/22 10:48:12;;;;;;;2.38;0.63;;;;;;;;;;4975940;28;20229;-73
2022/05/22 10:50:49;;;;;;;1.70;1.08;;;;;;;;;;5004837;28;20679;-73
2022/05/22 10:53:32;;;;;;;2.45;1.05;;;;;;;;;;4991826;28;20635;-74
2022/05/22 10:56:13;;;;;;;3.08;1.00;;;;;;;;;;5005611;28;20588;-73
2022/05/22 10:58:39;;;;;;;1.90;0.95;;;;;;;;;;5004614;28;20712;-73
2022/05/22 11:01:05;;;;;;;1.65;0.98;;;;;;;;;;4978476;28;20286;-74
2022/05/22 11:03:34;;;;;;;1.30;0.70;;;;;;;;;;4973628;28;20798;-73
2022/05/22 11:06:20;;;;;;;1.58;0.70;;;;;;;;;;4995151;28;20674;-74
2022/05/22 11:08:54;;;;;;;2.08;0.70;;;;;;;;;;4993035;28;20240;-74
2022/05/22 11:11:31;;;;;;;1.23;0.73;;;;;;;;;;4989768;28;20220;-75
2022/05/22 11:14:12;;;;;;;2.85;0.88;;;;;;;;;;4997045;28;20220;-75
2022/05/22 11:16:41;;;;;;;1.38;0.88;;;;;;;;;;4976550;28;20213;-75
2022/05/22 11:19:15;;;;;;;3.17;1.10;;;;;;;;;;4956195;28;20213;-74
2022/05/22 11:21:53;;;;;;;2.53;0.77;;;;;;;;;;4992607;28;20356;-74
2022/05/22 11:24:23;;;;;;;1.75;1.00;;;;;;;;;;4994422;28;20302;-76
2022/05/22 11:26:57;;;;;;;3.38;0.82;;;;;;;;;;4988397;28;20277;-72
2022/05/22 11:29:43;;;;;;;1.83;0.90;;;;;;;;;;5006902;28;20224;-73
2022/05/22 11:32:18;;;;;;;1.73;0.70;;;;;;;;;;4993087;28;20240;-74
2022/05/22 11:34:49;;;;;;;3.15;1.00;;;;;;;;;;5003928;28;20244;-73
2022/05/22 11:37:39;;;;;;;2.75;0.80;;;;;;;;;;4990744;28;20229;-73
2022/05/22 11:40:34;;;;;;;2.38;0.70;;;;;;;;;;5004793;28;20221;-73
2022/05/22 11:43:52;;;;;;;2.40;0.90;;;;;;;;;;4980424;28;20320;-73
2022/05/22 11:46:26;;;;;;;1.50;0.85;;;;;;;;;;4951620;28;20230;-74
2022/05/22 11:49:22;;;;;;;2.38;0.93;;;;;;;;;;4945834;28;20237;-74
2022/05/22 11:52:53;;;;;;;2.70;0.80;;;;;;;;;;4982277;28;20312;-73
2022/05/22 11:55:05;;;;;;;2.65;1.02;;;;;;;;;;4993826;28;20231;-73
2022/05/22 11:57:46;;;;;;;1.58;0.63;;;;;;;;;;4970685;28;20316;-73
2022/05/22 12:00:15;;;;;;;1.98;0.80;;;;;;;;;;4991857;28;20603;-73
2022/05/22 12:02:47;;;;;;;2.33;0.70;;;;;;;;;;4982646;28;20239;-74
2022/05/22 12:05:40;;;;;;;2.67;0.80;;;;;;;;;;4986891;28;20274;-75
2022/05/22 12:08:21;;;;;;;2.53;0.70;;;;;;;;;;4996943;28;20237;-73
2022/05/22 12:10:53;;;;;;;1.27;0.70;;;;;;;;;;5003983;28;20267;-74
2022/05/22 12:13:23;;;;;;;2.20;0.80;;;;;;;;;;4990007;28;20213;-75
2022/05/22 12:16:08;;;;;;;2.10;0.80;;;;;;;;;;5003061;28;20750;-75
2022/05/22 12:18:43;;;;;;;3.95;0.80;;;;;;;;;;5000750;28;20725;-74
2022/05/22 12:21:29;;;;;;;1.77;0.65;;;;;;;;;;5003657;28;20228;-74
2022/05/22 12:23:58;;;;;;;1.88;0.80;;;;;;;;;;4993834;28;20286;-73
2022/05/22 12:26:24;;;;;;;3.30;0.90;;;;;;;;;;4997386;28;20758;-75
2022/05/22 12:29:07;;;;;;;1.20;0.57;;;;;;;;;;4957041;28;20313;-74
2022/05/22 12:31:51;;;;;;;1.35;0.70;;;;;;;;;;5009203;28;20224;-73
2022/05/22 12:34:22;;;;;;;2.38;0.90;;;;;;;;;;5000001;28;20232;-74
2022/05/22 12:36:49;;;;;;;2.20;0.63;;;;;;;;;;4997067;28;20224;-74
2022/05/22 12:39:17;;;;;;;1.13;0.60;;;;;;;;;;4976232;28;20212;-73
2022/05/22 12:42:02;;;;;;;1.95;0.80;;;;;;;;;;4970158;28;20217;-73
2022/05/22 12:44:30;;;;;;;1.73;0.60;;;;;;;;;;4990799;28;20569;-74
2022/05/22 12:46:57;;;;;;;1.60;0.70;;;;;;;;;;4973495;28;20220;-74
2022/05/22 12:49:34;;;;;;;1.65;0.80;;;;;;;;;;4975896;28;20859;-74
2022/05/22 12:52:06;;;;;;;1.73;0.60;;;;;;;;;;4974001;28;20220;-73
2022/05/22 12:54:34;;;;;;;2.47;0.73;;;;;;;;;;4989531;28;20228;-73
2022/05/22 12:57:06;;;;;;;2.05;0.73;;;;;;;;;;4971372;28;20231;-74
2022/05/22 12:59:32;;;;;;;1.80;0.90;;;;;;;;;;4970001;28;20237;-73
2022/05/22 13:02:01;;;;;;;2.45;0.88;;;;;;;;;;4984910;28;20226;-73
2022/05/22 13:04:36;;;;;;;3.45;0.90;;;;;;;;;;5001769;28;20229;-75
2022/05/22 13:07:09;;;;;;;1.20;0.90;;;;;;;;;;5005147;28;20224;-73
2022/05/22 13:09:36;;;;;;;1.92;0.80;;;;;;;;;;4985635;28;20225;-73
2022/05/22 13:12:10;;;;;;;2.15;0.63;;;;;;;;;;5000295;28;20217;-74
2022/05/22 13:14:47;;;;;;;2.05;0.80;;;;;;;;;;5011700;28;20217;-73
2022/05/22 13:17:15;;;;;;;3.17;1.00;;;;;;;;;;5006294;28;20221;-73
2022/05/22 13:19:52;;;;;;;1.67;0.80;;;;;;;;;;4997801;28;20574;-72
2022/05/22 13:22:47;;;;;;;2.78;0.80;;;;;;;;;;5006363;28;20280;-72
2022/05/22 13:25:45;;;;;;;1.00;0.60;;;;;;;;;;4977156;28;20656;-73
2022/05/22 13:28:42;;;;;;;1.73;0.80;;;;;;;;;;4986627;28;20328;-73
2022/05/22 13:31:10;;;;;;;1.88;0.75;;;;;;;;;;5003131;28;20248;-73
2022/05/22 13:34:29;;;;;;;1.85;0.80;;;;;;;;;;5001378;28;20220;-74
2022/05/22 13:36:58;;;;;;;3.03;0.90;;;;;;;;;;4966754;28;20360;-72
2022/05/22 13:39:55;;;;;;;1.90;0.75;;;;;;;;;;4988774;28;20221;-72
2022/05/22 13:42:53;;;;;;;2.45;0.90;;;;;;;;;;4971574;28;20240;-72
2022/05/22 13:45:41;;;;;;;1.45;0.85;;;;;;;;;;4988747;28;20679;-72
2022/05/22 13:48:28;;;;;;;2.70;0.98;;;;;;;;;;5002072;28;20216;-72
2022/05/22 13:54:01;;;;;;;1.90;0.80;;;;;;;;;;5003388;28;20303;-72
2022/05/22 13:56:40;;;;;;;1.65;1.13;;;;;;;;;;5003102;28;20236;-72
2022/05/22 13:59:15;;;;;;;1.73;0.80;;;;;;;;;;4968012;28;20227;-72
2022/05/22 14:01:41;;;;;;;1.67;0.70;;;;;;;;;;4985665;28;20267;-73
2022/05/22 14:04:07;;;;;;;4.18;2.35;;;;;;;;;;4990016;28;20310;-73
2022/05/22 14:06:38;;;;;;;2.70;1.25;;;;;;;;;;4977283;28;20216;-73
2022/05/22 14:09:08;;;;;;;3.28;1.00;;;;;;;;;;4975022;28;20294;-73
2022/05/22 14:11:39;;;;;;;1.73;0.82;;;;;;;;;;5007400;28;20212;-73
2022/05/22 14:14:12;;;;;;;3.28;1.50;;;;;;;;;;4991427;28;20217;-72
2022/05/22 14:16:42;;;;;;;1.55;0.75;;;;;;;;;;4963074;28;20331;-73
2022/05/22 14:19:10;;;;;;;2.80;0.93;;;;;;;;;;4958919;28;20224;-73
2022/05/22 14:21:45;;;;;;;2.50;0.80;;;;;;;;;;4986497;28;20681;-73
2022/05/22 14:27:38;;;;;;;1.80;1.02;;;;;;;;;;5005662;28;20217;-73
2022/05/22 14:30:25;;;;;;;1.30;0.90;;;;;;;;;;4993291;28;20212;-72
2022/05/22 14:32:55;;;;;;;1.20;0.70;;;;;;;;;;4996458;28;20308;-73
2022/05/22 14:35:33;;;;;;;2.75;0.98;;;;;;;;;;4979065;28;20213;-72
2022/05/22 14:38:26;;;;;;;1.45;0.70;;;;;;;;;;4988658;28;20225;-73
2022/05/22 14:40:59;;;;;;;1.83;0.80;;;;;;;;;;5010494;28;20260;-71
2022/05/22 14:43:39;;;;;;;1.88;0.70;;;;;;;;;;4973113;28;20225;-72
2022/05/22 14:46:05;;;;;;;1.67;0.70;;;;;;;;;;4974561;28;20223;-73
2022/05/22 14:48:33;;;;;;;1.60;0.80;;;;;;;;;;5002876;28;20225;-73
2022/05/22 14:51:18;;;;;;;1.88;0.70;;;;;;;;;;5008247;28;20221;-73
2022/05/22 14:53:43;;;;;;;1.25;0.70;;;;;;;;;;4989264;28;20263;-72
2022/05/22 14:56:17;;;;;;;1.10;0.65;;;;;;;;;;4955553;28;20706;-72
2022/05/22 14:58:54;;;;;;;1.00;0.65;;;;;;;;;;4992886;28;20642;-72
2022/05/22 15:01:34;;;;;;;2.45;0.82;;;;;;;;;;4976707;28;20663;-73
2022/05/22 15:04:04;;;;;;;1.50;0.70;;;;;;;;;;5006293;28;20315;-72
2022/05/22 15:06:32;;;;;;;1.80;0.80;;;;;;;;;;4970038;28;20225;-71
2022/05/22 15:09:09;;;;;;;1.60;0.80;;;;;;;;;;4978713;28;20646;-74
2022/05/22 15:11:36;;;;;;;1.85;0.95;;;;;;;;;;4974463;28;20216;-72
2022/05/22 15:14:20;;;;;;;2.47;0.73;;;;;;;;;;5006957;28;20752;-71
2022/05/22 15:16:46;;;;;;;1.63;0.63;;;;;;;;;;4993952;28;20665;-72
2022/05/22 15:22:02;;;;;;;1.42;0.77;;;;;;;;;;5003920;28;20220;-73
2022/05/22 15:27:13;;;;;;;1.83;0.80;;;;;;;;;;4991107;28;20221;-72
2022/05/22 15:29:45;;;;;;;2.00;0.60;;;;;;;;;;4958509;28;20617;-72
2022/05/22 15:32:18;;;;;;;2.10;0.95;;;;;;;;;;4976990;28;20562;-73
2022/05/22 15:34:46;;;;;;;1.25;0.82;;;;;;;;;;5009254;28;20232;-73
2022/05/22 15:37:18;;;;;;;3.10;0.77;;;;;;;;;;4956108;28;20213;-71
2022/05/22 15:39:48;;;;;;;1.38;0.82;;;;;;;;;;4997107;28;20228;-73
2022/05/22 15:42:18;;;;;;;2.20;0.65;;;;;;;;;;4989939;28;20221;-72
2022/05/22 15:45:04;;;;;;;1.20;0.70;;;;;;;;;;4990400;28;20725;-72
2022/05/22 15:47:31;;;;;;;1.35;0.63;;;;;;;;;;4958410;28;20297;-72
2022/05/22 15:52:57;;;;;;;1.98;0.82;;;;;;;;;;4984411;28;20225;-73
2022/05/22 15:55:24;;;;;;;2.10;0.88;;;;;;;;;;4974723;28;20220;-71
2022/05/22 15:57:49;;;;;;;6.60;0.90;;;;;;;;;;4977427;28;20268;-72
2022/05/22 16:00:18;;;;;;;2.10;0.98;;;;;;;;;;4994412;28;20355;-73
2022/05/22 16:03:16;;;;;;;2.35;0.73;;;;;;;;;;4975199;28;20225;-73